Harmonsburg, Pennsylvania
Current Conditions -  °F | °C
As of 3:53 AM on Wednesday 26 Nov 2014 (Local Time) from KGKJ Reporting Station
Overcast Overcast  
Wind Chill: 26°   Ceiling: 1900
Heat Index: 31°   Visibility: 10mi
Dew Point: 23°   Wind: 5mph
Humidity: 72%   Direction: 40°NE
Pressure: 30.13"   Gusts: NA
Location:  41.66°N, 80.32°W
Report Text: KGKJ 260853Z AUTO 04004KT 10SM OVC019 M01/M05 A3013 RMK AO2 SLP216 T10061050 58008 TSNO
Loading
Personal Weather Stations






























Interactive Weather Map New forecast layout! Learn more

10-Day Weather Forecast

Advertisements
Track Severe Weather on mobile